Gobler, Missouri
Current Conditions -  °F | °C
As of 3:53 PM on Monday 24 Nov 2014 (Local Time) from KHKA Reporting Station
Clear Clear  
Wind Chill: 17°   Ceiling: Unl
Heat Index: 17°   Visibility: 10mi
Dew Point:   Wind: 9mph
Humidity: 33%   Direction: 240°WSW
Pressure: 29.89"   Gusts: 20mph
Location:  36.16°N, 89.96°W
Report Text: KHKA 242153Z AUTO 24008G17KT 10SM CLR 17/01 A2989 RMK AO2 SLP119 T01720006 $
Loading
Personal Weather Stations






























Interactive Weather Map New forecast layout! Learn more

10-Day Weather Forecast

Advertisements
Track Severe Weather on mobile